Terminal Aerodrome Forecast
Issued by NWS Sioux Falls, SD

Home | Current Version | Previous Version | Graphics & Text | Print | Product List | Glossary On
Versions: 1 2 3 4 5 6 7 8 9 10 11 12 13 14 15 16 17
000
FTUS43 KFSD 201747 RRA
TAFHON
TAF
KHON 201747Z 2018/2118 16010KT P6SM OVC005
     FM202100 15008KT P6SM OVC012
     FM210400 16007KT 5SM BR OVC008
     FM210600 18005KT 4SM -DZ BR OVC006
     FM211500 29005KT P6SM OVC008
     FM211700 29006KT P6SM OVC010=

USA.gov is the U.S. government's official web portal to all federal, state and local government web resources and services.